| time (UTC) | temp F | wind direction | speed knots | gust knots | rain 1hr in | rain 24hr in | rain mn in | humidity % | barometer mb |
| 20260510142547 | 52 | 270 | 6.1 | 7.0 | 0.00 | 0.00 | 0.00 | 46 | 1013.9 |
| 20260510142044 | 51 | 274 | 5.2 | 6.1 | 0.00 | 0.00 | 0.00 | 48 | 1013.7 |
| 20260510141541 | 51 | 320 | 6.1 | 7.8 | 0.00 | 0.00 | 0.00 | 48 | 1013.7 |
| 20260510141039 | 51 | 290 | 7.0 | 11.3 | 0.00 | 0.00 | 0.00 | 49 | 1013.6 |
| 20260510140535 | 51 | 250 | 8.7 | 13.0 | 0.00 | 0.00 | 0.00 | 49 | 1013.5 |
| 20260510140034 | 51 | 346 | 3.5 | 5.2 | 0.00 | 0.00 | 0.00 | 50 | 1013.4 |
| 20260510135530 | 51 | 268 | 6.1 | 8.7 | 0.00 | 0.00 | 0.00 | 49 | 1013.6 |
| 20260510135027 | 51 | 318 | 5.2 | 6.1 | 0.00 | 0.00 | 0.00 | 50 | 1013.4 |
| 20260510134524 | 51 | 308 | 3.5 | 3.5 | 0.00 | 0.00 | 0.00 | 51 | 1013.4 |
| 20260510134021 | 51 | 357 | 5.2 | 7.0 | 0.00 | 0.00 | 0.00 | 51 | 1013.4 |
| 20260510133516 | 52 | 269 | 4.3 | 5.2 | 0.00 | 0.00 | 0.00 | 49 | 1013.4 |
| 20260510133012 | 51 | 250 | 4.3 | 5.2 | 0.00 | 0.00 | 0.00 | 51 | 1013.6 |
| 20260510132510 | 51 | 330 | 4.3 | 6.1 | 0.00 | 0.00 | 0.00 | 51 | 1013.2 |
| 20260510132006 | 50 | 335 | 2.6 | 2.6 | 0.00 | 0.00 | 0.00 | 51 | 1013.4 |
| 20260510131504 | 50 | 276 | 7.0 | 13.9 | 0.00 | 0.00 | 0.00 | 52 | 1013.5 |
| 20260510131001 | 50 | 300 | 5.2 | 7.8 | 0.00 | 0.00 | 0.00 | 52 | 1013.1 |
| 20260510130457 | 49 | 257 | 2.6 | 3.5 | 0.00 | 0.00 | 0.00 | 54 | 1013.1 |
| 20260510125955 | 49 | 282 | 3.5 | 3.5 | 0.00 | 0.00 | 0.00 | 53 | 1013.2 |
| 20260510125451 | 49 | 348 | 1.7 | 2.6 | 0.00 | 0.00 | 0.00 | 55 | 1013.1 |
| 20260510124948 | 48 | 324 | 2.6 | 2.6 | 0.00 | 0.00 | 0.00 | 55 | 1013.0 |
| 20260510124444 | 48 | 252 | 4.3 | 6.1 | 0.00 | 0.00 | 0.00 | 56 | 1012.7 |
| 20260510123941 | 48 | 272 | 7.0 | 8.7 | 0.00 | 0.00 | 0.00 | 56 | 1013.0 |
| 20260510123436 | 48 | 264 | 5.2 | 9.6 | 0.00 | 0.00 | 0.00 | 57 | 1013.0 |
| 20260510122933 | 47 | 295 | 5.2 | 6.1 | 0.00 | 0.00 | 0.00 | 56 | 1012.9 |
| 20260510122433 | 47 | 310 | 3.5 | 6.1 | 0.00 | 0.00 | 0.00 | 57 | 1012.6 |
| 20260510121929 | 47 | 286 | 5.2 | 6.1 | 0.00 | 0.00 | 0.00 | 57 | 1012.6 |
| 20260510121427 | 47 | 354 | 1.7 | 2.6 | 0.00 | 0.00 | 0.00 | 58 | 1012.6 |
| 20260510120924 | 47 | 309 | 5.2 | 7.0 | 0.00 | 0.00 | 0.00 | 58 | 1012.5 |
| 20260510120421 | 47 | 267 | 4.3 | 5.2 | 0.00 | 0.00 | 0.00 | 59 | 1012.7 |
| 20260510115917 | 47 | 302 | 2.6 | 5.2 | 0.00 | 0.00 | 0.00 | 60 | 1012.5 |
| 20260510115414 | 46 | 306 | 2.6 | 3.5 | 0.00 | 0.00 | 0.00 | 60 | 1012.5 |
| 20260510114910 | 46 | 286 | 3.5 | 5.2 | 0.00 | 0.00 | 0.00 | 61 | 1012.3 |
| 20260510114408 | 45 | 300 | 2.6 | 2.6 | 0.00 | 0.00 | 0.00 | 61 | 1012.3 |
| 20260510113902 | 45 | 4 | 5.2 | 7.8 | 0.00 | 0.00 | 0.00 | 60 | 1012.2 |
| 20260510113358 | 45 | 284 | 2.6 | 2.6 | 0.00 | 0.00 | 0.00 | 61 | 1012.2 |
| 20260510112856 | 45 | 34 | 0.9 | 0.9 | 0.00 | 0.00 | 0.00 | 62 | 1012.2 |
| 20260510112353 | 45 | 269 | 2.6 | 2.6 | 0.00 | 0.00 | 0.00 | 62 | 1011.9 |
| 20260510111848 | 44 | 313 | 2.6 | 2.6 | 0.00 | 0.00 | 0.00 | 63 | 1011.9 |
| 20260510111345 | 44 | 337 | 3.5 | 5.2 | 0.00 | 0.00 | 0.00 | 64 | 1012.0 |
| 20260510110840 | 44 | 298 | 2.6 | 2.6 | 0.00 | 0.00 | 0.00 | 64 | 1011.7 |
| 20260510110337 | 43 | 300 | 1.7 | 1.7 | 0.00 | 0.00 | 0.00 | 65 | 1011.8 |
| 20260510105834 | 43 | 336 | 1.7 | 1.7 | 0.00 | 0.00 | 0.00 | 65 | 1011.4 |
| 20260510105333 | 43 | 305 | 0.0 | 0.0 | 0.00 | 0.00 | 0.00 | 66 | 1011.5 |
| 20260510104830 | 42 | 289 | 2.6 | 2.6 | 0.00 | 0.00 | 0.00 | 67 | 1011.5 |
| 20260510104327 | 41 | 293 | 0.9 | 1.7 | 0.00 | 0.00 | 0.00 | 68 | 1011.3 |
| 20260510103823 | 41 | 289 | 0.0 | 0.9 | 0.00 | 0.00 | 0.00 | 69 | 1011.3 |
| 20260510103320 | 41 | 245 | 0.0 | 0.0 | 0.00 | 0.00 | 0.00 | 70 | 1011.2 |
| 20260510102815 | 41 | 244 | 0.0 | 0.0 | 0.00 | 0.00 | 0.00 | 70 | 1010.9 |
| 20260510102311 | 41 | 243 | 0.0 | 0.0 | 0.00 | 0.00 | 0.00 | 70 | 1010.8 |
| 20260510101809 | 41 | 243 | 0.9 | 0.9 | 0.00 | 0.00 | 0.00 | 70 | 1010.6 |
| 20260510101307 | 41 | 243 | 0.0 | 0.0 | 0.00 | 0.00 | 0.00 | 70 | 1010.6 |
| 20260510100802 | 41 | 248 | 0.0 | 0.9 | 0.00 | 0.00 | 0.00 | 69 | 1010.6 |
| 20260510100301 | 41 | 249 | 0.0 | 0.0 | 0.00 | 0.00 | 0.00 | 69 | 1010.3 |
| 20260510095756 | 41 | 249 | 0.9 | 0.9 | 0.00 | 0.00 | 0.00 | 68 | 1010.4 |
| 20260510095251 | 42 | 249 | 0.9 | 0.9 | 0.00 | 0.00 | 0.00 | 68 | 1010.1 |
| 20260510094750 | 42 | 244 | 0.9 | 0.9 | 0.00 | 0.00 | 0.00 | 68 | 1010.1 |
| 20260510094246 | 42 | 262 | 0.9 | 0.9 | 0.00 | 0.00 | 0.00 | 67 | 1010.1 |
| 20260510093742 | 42 | 265 | 1.7 | 0.9 | 0.00 | 0.00 | 0.00 | 67 | 1010.0 |
| 20260510093239 | 42 | 261 | 1.7 | 1.7 | 0.00 | 0.00 | 0.00 | 66 | 1009.9 |
| 20260510092735 | 42 | 246 | 2.6 | 2.6 | 0.00 | 0.00 | 0.00 | 67 | 1010.1 |
| 20260510092231 | 43 | 259 | 1.7 | 1.7 | 0.00 | 0.00 | 0.00 | 66 | 1009.9 |
| 20260510091727 | 43 | 244 | 0.9 | 0.9 | 0.00 | 0.00 | 0.00 | 66 | 1009.5 |
| 20260510091224 | 43 | 257 | 0.9 | 0.9 | 0.00 | 0.00 | 0.00 | 65 | 1009.6 |
| 20260510090720 | 43 | 257 | 1.7 | 1.7 | 0.00 | 0.00 | 0.00 | 65 | 1009.7 |
| 20260510090218 | 44 | 262 | 1.7 | 2.6 | 0.00 | 0.00 | 0.00 | 65 | 1009.4 |
| 20260510085712 | 44 | 280 | 2.6 | 2.6 | 0.00 | 0.00 | 0.00 | 65 | 1009.4 |
| 20260510085208 | 44 | 299 | 0.9 | 0.9 | 0.00 | 0.00 | 0.00 | 64 | 1009.4 |
| 20260510084704 | 44 | 324 | 0.0 | 0.0 | 0.00 | 0.00 | 0.00 | 64 | 1009.1 |
| 20260510084201 | 44 | 318 | 1.7 | 0.9 | 0.00 | 0.00 | 0.00 | 63 | 1009.1 |
| 20260510083658 | 45 | 287 | 0.9 | 0.9 | 0.00 | 0.00 | 0.00 | 62 | 1009.1 |
| 20260510083154 | 45 | 347 | 2.6 | 3.5 | 0.00 | 0.00 | 0.00 | 61 | 1009.1 |
| 20260510082650 | 45 | 326 | 1.7 | 1.7 | 0.00 | 0.00 | 0.00 | 61 | 1008.9 |
| 20260510082146 | 46 | 298 | 0.9 | 1.7 | 0.00 | 0.00 | 0.00 | 60 | 1009.1 |
| 20260510081641 | 46 | 285 | 1.7 | 1.7 | 0.00 | 0.00 | 0.00 | 59 | 1008.9 |
| 20260510081137 | 46 | 248 | 3.5 | 5.2 | 0.00 | 0.00 | 0.00 | 59 | 1008.8 |
| 20260510080637 | 46 | 298 | 1.7 | 1.7 | 0.00 | 0.00 | 0.00 | 58 | 1008.7 |
| 20260510080134 | 47 | 343 | 1.7 | 1.7 | 0.00 | 0.00 | 0.00 | 58 | 1008.7 |
| 20260510075631 | 47 | 355 | 2.6 | 2.6 | 0.00 | 0.00 | 0.00 | 57 | 1008.6 |
| 20260510075128 | 48 | 280 | 1.7 | 2.6 | 0.00 | 0.00 | 0.00 | 56 | 1008.7 |
| 20260510074625 | 48 | 315 | 0.9 | 0.9 | 0.00 | 0.00 | 0.00 | 56 | 1008.7 |
| 20260510074120 | 48 | 316 | 1.7 | 1.7 | 0.00 | 0.00 | 0.00 | 55 | 1008.7 |
| 20260510073617 | 48 | 308 | 5.2 | 7.0 | 0.00 | 0.00 | 0.00 | 55 | 1008.6 |
| 20260510073114 | 49 | 313 | 5.2 | 6.1 | 0.00 | 0.00 | 0.00 | 55 | 1008.6 |
| 20260510072610 | 49 | 285 | 3.5 | 5.2 | 0.00 | 0.00 | 0.00 | 59 | 1008.4 |
| 20260510072107 | 49 | 272 | 3.5 | 5.2 | 0.00 | 0.00 | 0.00 | 59 | 1008.3 |
| 20260510071603 | 49 | 285 | 1.7 | 1.7 | 0.00 | 0.00 | 0.00 | 59 | 1008.1 |
| 20260510071101 | 49 | 282 | 1.7 | 1.7 | 0.00 | 0.00 | 0.00 | 59 | 1008.1 |
| 20260510070557 | 49 | 284 | 1.7 | 1.7 | 0.00 | 0.00 | 0.00 | 59 | 1008.1 |
| 20260510070055 | 49 | 295 | 1.7 | 2.6 | 0.00 | 0.00 | 0.00 | 58 | 1008.2 |
| 20260510065551 | 50 | 283 | 3.5 | 5.2 | 0.00 | 0.00 | 0.00 | 58 | 1008.0 |
| 20260510065047 | 50 | 275 | 3.5 | 3.5 | 0.00 | 0.00 | 0.00 | 59 | 1008.1 |
| 20260510064543 | 50 | 275 | 3.5 | 5.2 | 0.00 | 0.00 | 0.00 | 60 | 1008.2 |
| 20260510064040 | 50 | 259 | 3.5 | 5.2 | 0.00 | 0.00 | 0.00 | 60 | 1008.1 |
| 20260510063537 | 50 | 294 | 1.7 | 2.6 | 0.00 | 0.00 | 0.00 | 59 | 1008.0 |
| 20260510063034 | 50 | 259 | 0.9 | 0.9 | 0.00 | 0.00 | 0.00 | 60 | 1007.8 |
| 20260510062530 | 49 | 265 | 1.7 | 2.6 | 0.00 | 0.00 | 0.00 | 60 | 1007.8 |
| 20260510062025 | 50 | 286 | 3.5 | 2.6 | 0.00 | 0.00 | 0.00 | 60 | 1007.8 |
| 20260510061522 | 50 | 266 | 0.9 | 0.9 | 0.00 | 0.00 | 0.00 | 60 | 1007.8 |
| 20260510061019 | 50 | 297 | 1.7 | 2.6 | 0.00 | 0.00 | 0.00 | 60 | 1007.4 |
| 20260510060515 | 50 | 339 | 2.6 | 2.6 | 0.00 | 0.00 | 0.00 | 60 | 1007.4 |
| 20260510060011 | 49 | 264 | 2.6 | 2.6 | 0.00 | 0.00 | 0.00 | 61 | 1007.5 |
| 20260510055507 | 50 | 332 | 0.9 | 0.9 | 0.00 | 0.00 | 0.00 | 63 | 1007.5 |
| 20260510055006 | 50 | 256 | 4.3 | 5.2 | 0.00 | 0.00 | 0.00 | 62 | 1007.6 |
| 20260510054501 | 50 | 266 | 1.7 | 1.7 | 0.00 | 0.00 | 0.00 | 62 | 1007.4 |
| 20260510053956 | 50 | 298 | 0.0 | 0.9 | 0.00 | 0.00 | 0.00 | 62 | 1007.6 |
| 20260510053451 | 50 | 280 | 3.5 | 5.2 | 0.00 | 0.00 | 0.00 | 62 | 1007.3 |
| 20260510052948 | 50 | 293 | 1.7 | 1.7 | 0.00 | 0.00 | 0.00 | 63 | 1007.4 |
| 20260510052444 | 50 | 286 | 0.9 | 0.9 | 0.00 | 0.00 | 0.00 | 64 | 1007.3 |
| 20260510051940 | 50 | 289 | 2.6 | 3.5 | 0.00 | 0.00 | 0.00 | 64 | 1007.2 |
| 20260510051437 | 50 | 261 | 2.6 | 2.6 | 0.00 | 0.00 | 0.00 | 66 | 1007.2 |
| 20260510050933 | 50 | 263 | 1.7 | 2.6 | 0.00 | 0.00 | 0.00 | 67 | 1007.1 |
| 20260510050430 | 50 | 314 | 0.9 | 0.9 | 0.00 | 0.00 | 0.00 | 68 | 1007.1 |
| 20260510045927 | 50 | 292 | 1.7 | 1.7 | 0.00 | 0.00 | 0.00 | 69 | 1007.1 |
| 20260510045424 | 50 | 267 | 1.7 | 1.7 | 0.00 | 0.00 | 0.00 | 70 | 1006.9 |
| 20260510044921 | 50 | 321 | 0.9 | 0.9 | 0.00 | 0.00 | 0.00 | 71 | 1006.6 |
| 20260510044418 | 50 | 289 | 1.7 | 1.7 | 0.00 | 0.00 | 0.00 | 72 | 1006.5 |
| 20260510043915 | 50 | 261 | 0.9 | 0.9 | 0.00 | 0.00 | 0.00 | 72 | 1006.7 |
| 20260510043411 | 50 | 273 | 0.9 | 0.9 | 0.00 | 0.00 | 0.00 | 72 | 1006.5 |
| 20260510042909 | 50 | 297 | 0.0 | 0.0 | 0.00 | 0.00 | 0.00 | 72 | 1006.2 |
| 20260510042404 | 50 | 281 | 0.9 | 1.7 | 0.00 | 0.00 | 0.00 | 72 | 1006.5 |
| 20260510041900 | 50 | 296 | 0.9 | 0.9 | 0.00 | 0.00 | 0.00 | 72 | 1006.2 |
| 20260510041357 | 50 | 351 | 1.7 | 1.7 | 0.00 | 0.00 | 0.00 | 72 | 1005.8 |
| 20260510040855 | 50 | 346 | 1.7 | 1.7 | 0.00 | 0.00 | 0.00 | 73 | 1005.8 |
| 20260510040352 | 50 | 315 | 1.7 | 1.7 | 0.00 | 0.00 | 0.00 | 73 | 1005.9 |
| 20260510035847 | 50 | 339 | 0.0 | 0.0 | 0.00 | 0.08 | 0.08 | 73 | 1005.9 |
| 20260510035343 | 51 | 334 | 0.9 | 0.9 | 0.00 | 0.08 | 0.08 | 72 | 1005.6 |
| 20260510034839 | 51 | 353 | 0.0 | 0.0 | 0.00 | 0.08 | 0.08 | 72 | 1005.8 |
| 20260510034337 | 51 | 317 | 0.0 | 0.0 | 0.00 | 0.08 | 0.08 | 73 | 1005.7 |
| 20260510033833 | 51 | 324 | 0.9 | 0.9 | 0.00 | 0.08 | 0.08 | 75 | 1005.7 |
| 20260510033330 | 51 | 327 | 2.6 | 2.6 | 0.00 | 0.08 | 0.08 | 77 | 1005.7 |
| 20260510032827 | 51 | 333 | 0.9 | 1.7 | 0.00 | 0.08 | 0.08 | 80 | 1006.0 |
| 20260510032324 | 51 | 316 | 0.0 | 0.9 | 0.00 | 0.08 | 0.08 | 82 | 1006.1 |
| 20260510031819 | 51 | 269 | 3.5 | 3.5 | 0.00 | 0.08 | 0.08 | 84 | 1005.8 |
| 20260510031315 | 50 | 345 | 1.7 | 1.7 | 0.00 | 0.08 | 0.08 | 86 | 1005.7 |
| 20260510030809 | 50 | 285 | 1.7 | 1.7 | 0.00 | 0.08 | 0.08 | 87 | 1005.8 |
| 20260510030306 | 50 | 308 | 0.9 | 0.9 | 0.00 | 0.08 | 0.08 | 87 | 1006.0 |
| 20260510025803 | 50 | 300 | 0.9 | 1.7 | 0.00 | 0.08 | 0.08 | 86 | 1005.8 |
| 20260510025301 | 50 | 290 | 0.0 | 0.9 | 0.00 | 0.08 | 0.08 | 86 | 1005.7 |
| 20260510024757 | 50 | 289 | 0.9 | 0.9 | 0.00 | 0.08 | 0.08 | 86 | 1005.6 |
| 20260510024254 | 50 | 308 | 0.9 | 0.9 | 0.00 | 0.08 | 0.08 | 86 | 1005.8 |
| 20260510023750 | 50 | 327 | 0.9 | 0.9 | 0.00 | 0.08 | 0.08 | 85 | 1005.5 |
| 20260510023247 | 50 | 260 | 1.7 | 1.7 | 0.00 | 0.08 | 0.08 | 85 | 1005.3 |
| 20260510022743 | 50 | 273 | 2.6 | 2.6 | 0.00 | 0.08 | 0.08 | 84 | 1005.2 |
| 20260510022243 | 50 | 253 | 0.9 | 0.9 | 0.00 | 0.08 | 0.08 | 85 | 1005.2 |
| 20260510021743 | 50 | 277 | 0.9 | 0.9 | 0.00 | 0.08 | 0.08 | 85 | 1004.8 |
| 20260510021241 | 49 | 258 | 3.5 | 3.5 | 0.00 | 0.08 | 0.08 | 85 | 1004.9 |
| 20260510020736 | 49 | 258 | 1.7 | 1.7 | 0.00 | 0.08 | 0.08 | 85 | 1004.8 |
| 20260510020231 | 49 | 254 | 1.7 | 1.7 | 0.00 | 0.08 | 0.08 | 85 | 1004.9 |
| 20260510015727 | 49 | 245 | 3.5 | 3.5 | 0.00 | 0.08 | 0.08 | 85 | 1004.7 |
| 20260510015224 | 49 | 243 | 2.6 | 2.6 | 0.00 | 0.08 | 0.08 | 85 | 1004.6 |
| 20260510014719 | 49 | 259 | 2.6 | 3.5 | 0.00 | 0.08 | 0.08 | 85 | 1004.7 |
| 20260510014217 | 49 | 231 | 1.7 | 2.6 | 0.00 | 0.08 | 0.08 | 84 | 1004.7 |
| 20260510013712 | 49 | 233 | 3.5 | 3.5 | 0.00 | 0.08 | 0.08 | 84 | 1004.2 |
| 20260510013208 | 50 | 233 | 2.6 | 2.6 | 0.00 | 0.08 | 0.08 | 83 | 1004.3 |
| 20260510012708 | 50 | 235 | 4.3 | 5.2 | 0.00 | 0.08 | 0.08 | 83 | 1004.3 |
| 20260510012203 | 50 | 258 | 3.5 | 3.5 | 0.00 | 0.08 | 0.08 | 84 | 1004.3 |
| 20260510011658 | 50 | 226 | 1.7 | 1.7 | 0.00 | 0.08 | 0.08 | 83 | 1004.2 |
| 20260510011154 | 49 | 238 | 2.6 | 2.6 | 0.00 | 0.08 | 0.08 | 83 | 1004.1 |
| 20260510010650 | 49 | 242 | 5.2 | 6.1 | 0.00 | 0.08 | 0.08 | 83 | 1004.2 |
| 20260510010148 | 49 | 259 | 3.5 | 3.5 | 0.00 | 0.08 | 0.08 | 83 | 1004.3 |
| 20260510005643 | 49 | 222 | 3.5 | 5.2 | 0.00 | 0.08 | 0.08 | 83 | 1004.3 |
| 20260510005141 | 49 | 230 | 3.5 | 3.5 | 0.00 | 0.08 | 0.08 | 84 | 1004.3 |
| 20260510004639 | 49 | 251 | 3.5 | 5.2 | 0.00 | 0.08 | 0.08 | 83 | 1004.0 |
| 20260510004137 | 50 | 207 | 8.7 | 11.3 | 0.00 | 0.08 | 0.08 | 82 | 1003.8 |
| 20260510003633 | 50 | 224 | 5.2 | 7.8 | 0.00 | 0.08 | 0.08 | 83 | 1003.8 |
| 20260510003129 | 50 | 198 | 5.2 | 5.2 | 0.00 | 0.08 | 0.08 | 82 | 1003.6 |
| 20260510002629 | 50 | 217 | 3.5 | 3.5 | 0.00 | 0.08 | 0.08 | 82 | 1003.6 |
| 20260510002126 | 50 | 254 | 6.1 | 7.0 | 0.00 | 0.08 | 0.08 | 82 | 1003.6 |
| 20260510001623 | 50 | 241 | 4.3 | 5.2 | 0.00 | 0.08 | 0.08 | 82 | 1003.8 |
| 20260510001122 | 50 | 242 | 3.5 | 6.1 | 0.00 | 0.08 | 0.08 | 82 | 1003.4 |
| 20260510000622 | 50 | 253 | 2.6 | 2.6 | 0.00 | 0.08 | 0.08 | 82 | 1003.2 |
| 20260510000120 | 51 | 237 | 4.3 | 5.2 | 0.00 | 0.08 | 0.08 | 82 | 1003.1 |
| 20260509235616 | 51 | 251 | 5.2 | 7.8 | 0.00 | 0.08 | 0.08 | 82 | 1003.0 |
| 20260509235113 | 51 | 268 | 5.2 | 7.0 | 0.00 | 0.08 | 0.08 | 83 | 1002.7 |
| 20260509234608 | 51 | 224 | 5.2 | 7.0 | 0.00 | 0.08 | 0.08 | 84 | 1003.0 |
| 20260509234107 | 52 | 241 | 6.1 | 7.0 | 0.00 | 0.08 | 0.08 | 84 | 1002.6 |
| 20260509233604 | 53 | 261 | 3.5 | 3.5 | 0.00 | 0.08 | 0.08 | 83 | 1002.4 |
| 20260509233101 | 53 | 220 | 0.9 | 0.9 | 0.00 | 0.08 | 0.08 | 84 | 1002.3 |
| 20260509232557 | 53 | 233 | 3.5 | 5.2 | 0.00 | 0.08 | 0.08 | 83 | 1002.1 |
| 20260509232054 | 54 | 206 | 5.2 | 7.8 | 0.00 | 0.08 | 0.08 | 82 | 1002.1 |
| 20260509231551 | 53 | 296 | 5.2 | 7.0 | 0.00 | 0.08 | 0.08 | 84 | 1002.2 |
| 20260509231049 | 52 | 236 | 5.2 | 7.0 | 0.00 | 0.08 | 0.08 | 86 | 1002.4 |
| 20260509230545 | 51 | 193 | 2.6 | 2.6 | 0.00 | 0.08 | 0.08 | 89 | 1002.3 |
| 20260509230043 | 50 | 183 | 2.6 | 2.6 | 0.00 | 0.08 | 0.08 | 91 | 1002.3 |
| 20260509225537 | 50 | 201 | 0.9 | 0.9 | 0.05 | 0.08 | 0.08 | 90 | 1002.9 |
| 20260509225033 | 49 | 222 | 1.7 | 1.7 | 0.12 | 0.08 | 0.08 | 90 | 1002.9 |
| 20260509224529 | 49 | 185 | 3.5 | 2.6 | 0.12 | 0.07 | 0.07 | 90 | 1002.3 |
| 20260509224026 | 49 | 65 | 2.6 | 2.6 | 0.19 | 0.07 | 0.07 | 89 | 1002.9 |
| 20260509223523 | 49 | 186 | 1.7 | 1.7 | 0.26 | 0.05 | 0.05 | 88 | 1003.4 |
| 20260509223021 | 50 | 152 | 0.9 | 0.9 | 0.24 | 0.04 | 0.04 | 86 | 1003.1 |
| 20260509222516 | 50 | 224 | 1.7 | 1.7 | 0.05 | 0.01 | 0.01 | 84 | 1003.3 |
| 20260509222012 | 50 | 238 | 1.7 | 0.9 | 0.00 | 0.00 | 0.00 | 83 | 1002.6 |
| 20260509221508 | 50 | 144 | 0.0 | 0.9 | 0.00 | 0.00 | 0.00 | 82 | 1002.4 |
| 20260509221004 | 50 | 138 | 0.9 | 0.9 | 0.00 | 0.00 | 0.00 | 82 | 1002.4 |
| 20260509220501 | 50 | 115 | 2.6 | 2.6 | 0.00 | 0.00 | 0.00 | 81 | 1002.7 |
| 20260509215956 | 50 | 136 | 3.5 | 3.5 | 0.00 | 0.00 | 0.00 | 80 | 1002.8 |
| 20260509215452 | 50 | 134 | 0.9 | 1.7 | 0.00 | 0.00 | 0.00 | 80 | 1002.9 |
| 20260509214950 | 50 | 147 | 3.5 | 3.5 | 0.00 | 0.00 | 0.00 | 79 | 1003.0 |
| 20260509214447 | 50 | 121 | 3.5 | 5.2 | 0.00 | 0.00 | 0.00 | 79 | 1003.0 |
| 20260509213943 | 51 | 133 | 5.2 | 6.1 | 0.00 | 0.00 | 0.00 | 78 | 1003.0 |
| 20260509213439 | 51 | 126 | 2.6 | 2.6 | 0.00 | 0.00 | 0.00 | 78 | 1003.1 |
| 20260509212937 | 51 | 138 | 1.7 | 2.6 | 0.00 | 0.00 | 0.00 | 78 | 1002.8 |
| 20260509212434 | 51 | 147 | 4.3 | 5.2 | 0.00 | 0.00 | 0.00 | 77 | 1002.8 |
| 20260509211930 | 51 | 150 | 7.0 | 8.7 | 0.00 | 0.00 | 0.00 | 77 | 1002.9 |
| 20260509211426 | 51 | 133 | 3.5 | 3.5 | 0.00 | 0.00 | 0.00 | 77 | 1002.8 |
| 20260509210923 | 51 | 149 | 4.3 | 6.1 | 0.00 | 0.00 | 0.00 | 78 | 1002.8 |
| 20260509210420 | 50 | 154 | 3.5 | 3.5 | 0.00 | 0.00 | 0.00 | 78 | 1002.7 |
| 20260509205915 | 50 | 143 | 3.5 | 5.2 | 0.00 | 0.00 | 0.00 | 79 | 1002.7 |
| 20260509205415 | 50 | 146 | 5.2 | 7.0 | 0.00 | 0.00 | 0.00 | 78 | 1003.3 |
| 20260509204911 | 50 | 135 | 4.3 | 5.2 | 0.00 | 0.00 | 0.00 | 79 | 1003.4 |
| 20260509204408 | 50 | 155 | 2.6 | 5.2 | 0.00 | 0.00 | 0.00 | 78 | 1003.5 |
| 20260509203904 | 50 | 151 | 2.6 | 2.6 | 0.00 | 0.00 | 0.00 | 79 | 1003.4 |
| 20260509203400 | 50 | 133 | 5.2 | 7.0 | 0.00 | 0.00 | 0.00 | 79 | 1003.3 |
| 20260509202858 | 50 | 126 | 5.2 | 7.0 | 0.00 | 0.00 | 0.00 | 79 | 1003.4 |
| 20260509202353 | 50 | 120 | 5.2 | 7.0 | 0.00 | 0.00 | 0.00 | 80 | 1003.3 |
| 20260509201849 | 50 | 130 | 7.0 | 7.0 | 0.00 | 0.00 | 0.00 | 78 | 1003.3 |
| 20260509201344 | 51 | 118 | 4.3 | 6.1 | 0.00 | 0.00 | 0.00 | 77 | 1003.4 |
| 20260509200842 | 51 | 113 | 1.7 | 1.7 | 0.00 | 0.00 | 0.00 | 78 | 1003.5 |
| 20260509200336 | 50 | 142 | 4.3 | 6.1 | 0.00 | 0.00 | 0.00 | 79 | 1003.6 |
| 20260509195834 | 50 | 87 | 0.9 | 0.9 | 0.00 | 0.00 | 0.00 | 79 | 1003.6 |
| 20260509195334 | 51 | 122 | 5.2 | 6.1 | 0.00 | 0.00 | 0.00 | 76 | 1003.8 |
| 20260509194834 | 51 | 128 | 1.7 | 1.7 | 0.00 | 0.00 | 0.00 | 76 | 1003.9 |
| 20260509194330 | 51 | 107 | 1.7 | 1.7 | 0.00 | 0.00 | 0.00 | 76 | 1004.0 |
| 20260509193827 | 52 | 143 | 1.7 | 1.7 | 0.00 | 0.00 | 0.00 | 76 | 1004.0 |
| 20260509193327 | 52 | 150 | 3.5 | 3.5 | 0.00 | 0.00 | 0.00 | 76 | 1004.0 |
| 20260509192823 | 52 | 117 | 1.7 | 1.7 | 0.00 | 0.00 | 0.00 | 76 | 1003.8 |
| 20260509192319 | 52 | 136 | 5.2 | 7.0 | 0.00 | 0.00 | 0.00 | 76 | 1004.0 |
| 20260509191814 | 53 | 131 | 6.1 | 7.0 | 0.00 | 0.00 | 0.00 | 74 | 1003.7 |
| 20260509191311 | 54 | 146 | 3.5 | 5.2 | 0.00 | 0.00 | 0.00 | 74 | 1003.9 |
| 20260509190806 | 55 | 103 | 5.2 | 7.8 | 0.00 | 0.00 | 0.00 | 71 | 1004.1 |
| 20260509190304 | 57 | 164 | 2.6 | 3.5 | 0.00 | 0.00 | 0.00 | 70 | 1004.2 |
| 20260509185801 | 57 | 140 | 5.2 | 6.1 | 0.00 | 0.00 | 0.00 | 71 | 1004.1 |
| 20260509185257 | 57 | 162 | 6.1 | 7.8 | 0.00 | 0.00 | 0.00 | 71 | 1004.1 |
| 20260509184755 | 56 | 146 | 6.1 | 8.7 | 0.00 | 0.00 | 0.00 | 70 | 1003.8 |
| 20260509184252 | 56 | 111 | 3.5 | 3.5 | 0.00 | 0.00 | 0.00 | 70 | 1004.0 |
| 20260509183748 | 56 | 102 | 5.2 | 7.0 | 0.00 | 0.00 | 0.00 | 70 | 1004.2 |
| 20260509183244 | 55 | 132 | 6.1 | 7.0 | 0.00 | 0.00 | 0.00 | 73 | 1004.2 |
| 20260509182739 | 55 | 159 | 2.6 | 5.2 | 0.00 | 0.00 | 0.00 | 74 | 1004.4 |
| 20260509182237 | 55 | 108 | 7.0 | 7.8 | 0.00 | 0.00 | 0.00 | 72 | 1004.5 |
| 20260509181734 | 54 | 145 | 5.2 | 7.0 | 0.00 | 0.00 | 0.00 | 74 | 1004.4 |
| 20260509181232 | 55 | 138 | 7.0 | 7.0 | 0.00 | 0.00 | 0.00 | 71 | 1004.5 |
| 20260509180729 | 54 | 127 | 6.1 | 7.8 | 0.00 | 0.00 | 0.00 | 72 | 1004.8 |
| 20260509180225 | 54 | 133 | 4.3 | 6.1 | 0.00 | 0.00 | 0.00 | 72 | 1004.8 |
| 20260509175721 | 54 | 110 | 3.5 | 3.5 | 0.00 | 0.00 | 0.00 | 71 | 1004.8 |
| 20260509175218 | 53 | 122 | 1.7 | 3.5 | 0.00 | 0.00 | 0.00 | 74 | 1004.8 |
| 20260509174714 | 53 | 147 | 7.0 | 7.8 | 0.00 | 0.00 | 0.00 | 73 | 1004.9 |
| 20260509174209 | 53 | 119 | 7.0 | 7.8 | 0.00 | 0.00 | 0.00 | 73 | 1005.0 |
| 20260509173706 | 54 | 128 | 5.2 | 7.0 | 0.00 | 0.00 | 0.00 | 72 | 1005.0 |
| 20260509173201 | 53 | 146 | 5.2 | 6.1 | 0.00 | 0.00 | 0.00 | 72 | 1005.1 |
| 20260509172657 | 53 | 124 | 5.2 | 6.1 | 0.00 | 0.00 | 0.00 | 73 | 1005.1 |
| 20260509172154 | 53 | 136 | 5.2 | 6.1 | 0.00 | 0.00 | 0.00 | 73 | 1005.3 |
| 20260509171649 | 53 | 136 | 7.0 | 7.0 | 0.00 | 0.00 | 0.00 | 71 | 1005.2 |
| 20260509171146 | 54 | 149 | 7.8 | 8.7 | 0.00 | 0.00 | 0.00 | 71 | 1005.1 |
| 20260509170643 | 55 | 149 | 7.0 | 7.8 | 0.00 | 0.00 | 0.00 | 70 | 1005.1 |
| 20260509170139 | 55 | 144 | 6.1 | 7.8 | 0.00 | 0.00 | 0.00 | 71 | 1005.4 |
| 20260509165637 | 54 | 140 | 7.0 | 7.8 | 0.00 | 0.00 | 0.00 | 71 | 1005.5 |
| 20260509165133 | 53 | 100 | 3.5 | 3.5 | 0.00 | 0.00 | 0.00 | 72 | 1005.5 |
| 20260509164629 | 53 | 143 | 6.1 | 7.0 | 0.00 | 0.00 | 0.00 | 71 | 1005.6 |
| 20260509164125 | 53 | 141 | 5.2 | 6.1 | 0.00 | 0.00 | 0.00 | 72 | 1005.6 |
| 20260509163623 | 53 | 124 | 7.8 | 8.7 | 0.00 | 0.00 | 0.00 | 70 | 1005.7 |
| 20260509163118 | 53 | 113 | 2.6 | 5.2 | 0.00 | 0.00 | 0.00 | 70 | 1005.8 |
| 20260509162616 | 53 | 130 | 6.1 | 7.8 | 0.00 | 0.00 | 0.00 | 69 | 1005.9 |
| 20260509162112 | 55 | 147 | 6.1 | 7.8 | 0.00 | 0.00 | 0.00 | 69 | 1005.7 |
| 20260509161608 | 54 | 132 | 7.8 | 7.8 | 0.00 | 0.00 | 0.00 | 67 | 1005.6 |
| 20260509161108 | 54 | 139 | 5.2 | 6.1 | 0.00 | 0.00 | 0.00 | 70 | 1005.7 |
| 20260509160605 | 55 | 117 | 5.2 | 6.1 | 0.00 | 0.00 | 0.00 | 66 | 1006.2 |
| 20260509160100 | 55 | 154 | 1.7 | 2.6 | 0.00 | 0.00 | 0.00 | 67 | 1005.9 |
| 20260509155556 | 53 | 103 | 1.7 | 1.7 | 0.00 | 0.00 | 0.00 | 69 | 1006.1 |
| 20260509155053 | 54 | 167 | 5.2 | 6.1 | 0.00 | 0.00 | 0.00 | 66 | 1006.1 |
| 20260509154549 | 53 | 151 | 4.3 | 5.2 | 0.00 | 0.00 | 0.00 | 68 | 1005.8 |
| 20260509154046 | 52 | 137 | 6.1 | 7.0 | 0.00 | 0.00 | 0.00 | 70 | 1005.9 |
| 20260509153543 | 52 | 135 | 8.7 | 9.6 | 0.00 | 0.00 | 0.00 | 69 | 1006.0 |
| 20260509153040 | 53 | 115 | 3.5 | 5.2 | 0.00 | 0.00 | 0.00 | 68 | 1006.1 |
| 20260509152536 | 53 | 154 | 6.1 | 7.0 | 0.00 | 0.00 | 0.00 | 68 | 1006.1 |
| 20260509152033 | 53 | 129 | 6.1 | 6.1 | 0.00 | 0.00 | 0.00 | 67 | 1006.0 |
| 20260509151529 | 53 | 118 | 5.2 | 5.2 | 0.00 | 0.00 | 0.00 | 68 | 1006.2 |
| 20260509151027 | 53 | 125 | 5.2 | 6.1 | 0.00 | 0.00 | 0.00 | 68 | 1006.5 |
| 20260509150524 | 52 | 134 | 2.6 | 2.6 | 0.00 | 0.00 | 0.00 | 70 | 1006.6 |
| 20260509150023 | 52 | 143 | 6.1 | 7.0 | 0.00 | 0.00 | 0.00 | 69 | 1006.8 |
| 20260509145518 | 51 | 109 | 0.9 | 1.7 | 0.00 | 0.00 | 0.00 | 69 | 1006.8 |
| 20260509145013 | 51 | 124 | 2.6 | 3.5 | 0.00 | 0.00 | 0.00 | 69 | 1006.7 |
| 20260509144511 | 50 | 115 | 2.6 | 2.6 | 0.00 | 0.00 | 0.00 | 70 | 1006.8 |
| 20260509144008 | 49 | 158 | 2.6 | 2.6 | 0.00 | 0.00 | 0.00 | 71 | 1007.0 |
| 20260509143505 | 49 | 149 | 6.1 | 6.1 | 0.00 | 0.00 | 0.00 | 70 | 1007.0 |
| 20260509143003 | 49 | 137 | 3.5 | 3.5 | 0.00 | 0.00 | 0.00 | 69 | 1006.8 |